sensor_id;sensor_type;location;lat;lon;timestamp;P1;P2;P0
58740;PMS7003;44512;53.046;18.604;2022-07-22T00:07:54;24;22;17
58740;PMS7003;44512;53.046;18.604;2022-07-22T00:18:22;28;25;19
58740;PMS7003;44512;53.046;18.604;2022-07-22T00:28:50;27;26;17
58740;PMS7003;44512;53.046;18.604;2022-07-22T00:39:19;30;27;20
58740;PMS7003;44512;53.046;18.604;2022-07-22T00:49:47;34;29;20
58740;PMS7003;44512;53.046;18.604;2022-07-22T01:00:17;34;30;21
58740;PMS7003;44512;53.046;18.604;2022-07-22T01:10:44;36;31;21
58740;PMS7003;44512;53.046;18.604;2022-07-22T01:21:13;35;31;22
58740;PMS7003;44512;53.046;18.604;2022-07-22T01:31:40;38;31;21
58740;PMS7003;44512;53.046;18.604;2022-07-22T01:42:09;40;31;24
58740;PMS7003;44512;53.046;18.604;2022-07-22T01:52:38;41;32;22
58740;PMS7003;44512;53.046;18.604;2022-07-22T02:03:06;40;34;24
58740;PMS7003;44512;53.046;18.604;2022-07-22T02:13:34;38;33;24
58740;PMS7003;44512;53.046;18.604;2022-07-22T02:24:02;39;34;24
58740;PMS7003;44512;53.046;18.604;2022-07-22T02:34:31;41;31;22
58740;PMS7003;44512;53.046;18.604;2022-07-22T02:44:59;40;33;22
58740;PMS7003;44512;53.046;18.604;2022-07-22T02:55:28;35;30;22
58740;PMS7003;44512;53.046;18.604;2022-07-22T03:05:56;34;30;23
58740;PMS7003;44512;53.046;18.604;2022-07-22T03:16:24;44;35;23
58740;PMS7003;44512;53.046;18.604;2022-07-22T03:26:53;40;34;23
58740;PMS7003;44512;53.046;18.604;2022-07-22T03:37:21;36;30;20
58740;PMS7003;44512;53.046;18.604;2022-07-22T03:47:49;34;29;21
58740;PMS7003;44512;53.046;18.604;2022-07-22T03:58:18;35;30;20
58740;PMS7003;44512;53.046;18.604;2022-07-22T04:08:46;34;30;21
58740;PMS7003;44512;53.046;18.604;2022-07-22T04:19:15;33;29;21
58740;PMS7003;44512;53.046;18.604;2022-07-22T04:29:43;32;26;19
58740;PMS7003;44512;53.046;18.604;2022-07-22T04:40:12;32;29;21
58740;PMS7003;44512;53.046;18.604;2022-07-22T04:50:40;28;24;18
58740;PMS7003;44512;53.046;18.604;2022-07-22T05:01:08;27;25;18
58740;PMS7003;44512;53.046;18.604;2022-07-22T05:11:36;25;23;17
58740;PMS7003;44512;53.046;18.604;2022-07-22T05:22:08;23;21;16
58740;PMS7003;44512;53.046;18.604;2022-07-22T05:32:33;21;20;15
58740;PMS7003;44512;53.046;18.604;2022-07-22T05:43:01;21;19;14
58740;PMS7003;44512;53.046;18.604;2022-07-22T05:53:30;23;21;16
58740;PMS7003;44512;53.046;18.604;2022-07-22T06:03:59;26;24;17
58740;PMS7003;44512;53.046;18.604;2022-07-22T06:14:27;26;24;17
58740;PMS7003;44512;53.046;18.604;2022-07-22T06:24:55;32;29;20
58740;PMS7003;44512;53.046;18.604;2022-07-22T06:35:23;33;29;20
58740;PMS7003;44512;53.046;18.604;2022-07-22T06:45:52;32;28;20
58740;PMS7003;44512;53.046;18.604;2022-07-22T06:56:20;33;30;21
58740;PMS7003;44512;53.046;18.604;2022-07-22T07:06:48;36;31;22
58740;PMS7003;44512;53.046;18.604;2022-07-22T07:17:17;36;30;21
58740;PMS7003;44512;53.046;18.604;2022-07-22T07:27:45;42;34;23
58740;PMS7003;44512;53.046;18.604;2022-07-22T07:38:14;41;34;24
58740;PMS7003;44512;53.046;18.604;2022-07-22T07:48:42;38;32;22
58740;PMS7003;44512;53.046;18.604;2022-07-22T07:59:10;33;30;21
58740;PMS7003;44512;53.046;18.604;2022-07-22T08:09:39;27;25;19
58740;PMS7003;44512;53.046;18.604;2022-07-22T08:20:07;29;28;20
58740;PMS7003;44512;53.046;18.604;2022-07-22T08:30:36;24;21;17
58740;PMS7003;44512;53.046;18.604;2022-07-22T08:41:04;23;21;15
58740;PMS7003;44512;53.046;18.604;2022-07-22T08:51:32;18;16;13
58740;PMS7003;44512;53.046;18.604;2022-07-22T09:12:29;13;11;9
58740;PMS7003;44512;53.046;18.604;2022-07-22T09:22:57;11;10;8
58740;PMS7003;44512;53.046;18.604;2022-07-22T09:33:25;12;12;9
58740;PMS7003;44512;53.046;18.604;2022-07-22T09:43:55;10;10;7
58740;PMS7003;44512;53.046;18.604;2022-07-22T09:54:22;11;11;8
58740;PMS7003;44512;53.046;18.604;2022-07-22T10:04:50;14;10;7
58740;PMS7003;44512;53.046;18.604;2022-07-22T10:15:19;12;11;8
58740;PMS7003;44512;53.046;18.604;2022-07-22T10:36:28;10;10;8
58740;PMS7003;44512;53.046;18.604;2022-07-22T10:51:16;0;0;0
58740;PMS7003;44512;53.046;18.604;2022-07-22T11:01:08;9;8;7
58740;PMS7003;44512;53.046;18.604;2022-07-22T11:11:13;12;11;10
58740;PMS7003;44512;53.046;18.604;2022-07-22T11:21:18;12;9;8
58740;PMS7003;44512;53.046;18.604;2022-07-22T11:31:21;10;9;8
58740;PMS7003;44512;53.046;18.604;2022-07-22T11:51:33;10;9;8
58740;PMS7003;44512;53.046;18.604;2022-07-22T12:01:37;9;9;7
58740;PMS7003;44512;53.046;18.604;2022-07-22T12:11:42;11;10;8
58740;PMS7003;44512;53.046;18.604;2022-07-22T12:32:02;13;13;10
58740;PMS7003;44512;53.046;18.604;2022-07-22T12:52:18;12;11;9
58740;PMS7003;44512;53.046;18.604;2022-07-22T13:02:20;12;11;9
58740;PMS7003;44512;53.046;18.604;2022-07-22T13:12:21;13;12;10
58740;PMS7003;44512;53.046;18.604;2022-07-22T13:22:22;14;13;9
58740;PMS7003;44512;53.046;18.604;2022-07-22T13:32:24;15;14;9
58740;PMS7003;44512;53.046;18.604;2022-07-22T13:42:25;15;13;11
58740;PMS7003;44512;53.046;18.604;2022-07-22T13:52:27;13;12;10
58740;PMS7003;44512;53.046;18.604;2022-07-22T14:02:29;13;12;10
58740;PMS7003;44512;53.046;18.604;2022-07-22T14:12:30;12;11;10
58740;PMS7003;44512;53.046;18.604;2022-07-22T14:22:31;13;13;10
58740;PMS7003;44512;53.046;18.604;2022-07-22T14:32:33;14;13;10
58740;PMS7003;44512;53.046;18.604;2022-07-22T14:42:34;14;13;11
58740;PMS7003;44512;53.046;18.604;2022-07-22T14:52:35;16;12;9
58740;PMS7003;44512;53.046;18.604;2022-07-22T15:03:01;18;14;11
58740;PMS7003;44512;53.046;18.604;2022-07-22T15:13:29;15;14;11
58740;PMS7003;44512;53.046;18.604;2022-07-22T15:23:57;14;14;11
58740;PMS7003;44512;53.046;18.604;2022-07-22T15:34:26;12;12;9
58740;PMS7003;44512;53.046;18.604;2022-07-22T15:44:53;13;12;9
58740;PMS7003;44512;53.046;18.604;2022-07-22T15:55:26;14;13;10
58740;PMS7003;44512;53.046;18.604;2022-07-22T16:05:55;14;11;9
58740;PMS7003;44512;53.046;18.604;2022-07-22T16:16:23;12;12;10
58740;PMS7003;44512;53.046;18.604;2022-07-22T16:26:51;12;12;9
58740;PMS7003;44512;53.046;18.604;2022-07-22T16:37:19;13;12;9
58740;PMS7003;44512;53.046;18.604;2022-07-22T16:47:48;12;12;9
58740;PMS7003;44512;53.046;18.604;2022-07-22T16:58:16;14;13;10
58740;PMS7003;44512;53.046;18.604;2022-07-22T17:08:44;12;11;9
58740;PMS7003;44512;53.046;18.604;2022-07-22T17:19:13;12;11;9
58740;PMS7003;44512;53.046;18.604;2022-07-22T17:29:41;10;10;8
58740;PMS7003;44512;53.046;18.604;2022-07-22T17:40:10;11;10;9
58740;PMS7003;44512;53.046;18.604;2022-07-22T17:50:38;13;11;8
58740;PMS7003;44512;53.046;18.604;2022-07-22T18:01:06;10;10;7
58740;PMS7003;44512;53.046;18.604;2022-07-22T18:11:34;10;10;8
58740;PMS7003;44512;53.046;18.604;2022-07-22T18:22:04;12;12;10
58740;PMS7003;44512;53.046;18.604;2022-07-22T18:32:31;12;11;10
58740;PMS7003;44512;53.046;18.604;2022-07-22T18:42:59;13;12;9
58740;PMS7003;44512;53.046;18.604;2022-07-22T18:53:28;10;10;8
58740;PMS7003;44512;53.046;18.604;2022-07-22T19:03:56;12;10;8
58740;PMS7003;44512;53.046;18.604;2022-07-22T19:14:24;12;12;8
58740;PMS7003;44512;53.046;18.604;2022-07-22T19:24:54;12;12;9
58740;PMS7003;44512;53.046;18.604;2022-07-22T19:35:21;12;11;9
58740;PMS7003;44512;53.046;18.604;2022-07-22T19:45:49;13;12;10
58740;PMS7003;44512;53.046;18.604;2022-07-22T19:56:18;13;13;9
58740;PMS7003;44512;53.046;18.604;2022-07-22T20:06:46;12;12;10
58740;PMS7003;44512;53.046;18.604;2022-07-22T20:17:14;13;12;9
58740;PMS7003;44512;53.046;18.604;2022-07-22T20:27:43;13;12;9
58740;PMS7003;44512;53.046;18.604;2022-07-22T20:38:11;13;13;9
58740;PMS7003;44512;53.046;18.604;2022-07-22T20:48:39;13;13;10
58740;PMS7003;44512;53.046;18.604;2022-07-22T20:59:08;12;12;10
58740;PMS7003;44512;53.046;18.604;2022-07-22T21:09:36;13;11;9
58740;PMS7003;44512;53.046;18.604;2022-07-22T21:20:05;11;11;9
58740;PMS7003;44512;53.046;18.604;2022-07-22T21:30:33;14;13;11
58740;PMS7003;44512;53.046;18.604;2022-07-22T21:41:01;15;15;12
58740;PMS7003;44512;53.046;18.604;2022-07-22T21:51:29;13;12;10
58740;PMS7003;44512;53.046;18.604;2022-07-22T22:01:59;14;14;12
58740;PMS7003;44512;53.046;18.604;2022-07-22T22:12:26;15;15;11
58740;PMS7003;44512;53.046;18.604;2022-07-22T22:22:55;18;15;12
58740;PMS7003;44512;53.046;18.604;2022-07-22T22:33:23;19;17;14
58740;PMS7003;44512;53.046;18.604;2022-07-22T22:43:51;18;17;13
58740;PMS7003;44512;53.046;18.604;2022-07-22T22:54:19;23;21;16
58740;PMS7003;44512;53.046;18.604;2022-07-22T23:04:48;20;17;14
58740;PMS7003;44512;53.046;18.604;2022-07-22T23:15:16;25;20;16
58740;PMS7003;44512;53.046;18.604;2022-07-22T23:25:45;24;22;16
58740;PMS7003;44512;53.046;18.604;2022-07-22T23:36:13;23;22;16
58740;PMS7003;44512;53.046;18.604;2022-07-22T23:46:41;22;21;15
58740;PMS7003;44512;53.046;18.604;2022-07-22T23:57:10;24;22;17
